createdAt,value
2023-01-28T00:01:28.677Z,2.83
2023-01-28T00:03:30.826Z,3.07
2023-01-28T00:05:32.965Z,4.17
2023-01-28T00:07:35.217Z,3.00
2023-01-28T00:09:37.405Z,2.93
2023-01-28T00:11:39.624Z,3.00
2023-01-28T00:13:42.159Z,3.10
2023-01-28T00:15:44.609Z,3.30
2023-01-28T00:17:46.748Z,3.33
2023-01-28T00:19:48.921Z,2.90
2023-01-28T00:21:51.100Z,3.17
2023-01-28T00:23:55.475Z,2.97
2023-01-28T00:26:02.558Z,3.13
2023-01-28T00:28:04.682Z,3.40
2023-01-28T00:30:07.859Z,3.70
2023-01-28T00:32:11.690Z,3.93
2023-01-28T00:34:13.877Z,3.50
2023-01-28T00:36:17.297Z,3.50
2023-01-28T00:38:19.379Z,3.80
2023-01-28T00:40:21.701Z,4.07
2023-01-28T00:42:23.805Z,4.20
2023-01-28T00:44:26.150Z,4.00
2023-01-28T00:46:28.807Z,4.53
2023-01-28T00:48:31.226Z,3.77
2023-01-28T00:50:33.347Z,3.97
2023-01-28T00:52:35.528Z,4.47
2023-01-28T00:54:37.677Z,4.20
2023-01-28T00:56:39.829Z,4.27
2023-01-28T00:58:42.814Z,3.63
2023-01-28T01:00:45.213Z,4.30
2023-01-28T01:02:47.530Z,3.30
2023-01-28T01:04:58.686Z,3.17
2023-01-28T01:07:01.489Z,3.43
2023-01-28T01:09:08.322Z,3.13
2023-01-28T01:11:12.209Z,3.30
2023-01-28T01:13:14.379Z,3.23
2023-01-28T01:15:17.617Z,3.70
2023-01-28T01:17:21.240Z,2.57
2023-01-28T01:19:23.440Z,3.60
2023-01-28T01:21:27.326Z,3.33
2023-01-28T01:23:31.082Z,3.47
2023-01-28T01:25:33.246Z,3.47
2023-01-28T01:27:36.282Z,3.00
2023-01-28T01:29:39.476Z,3.50
2023-01-28T01:31:43.590Z,2.43
2023-01-28T01:33:47.746Z,3.10
2023-01-28T01:35:54.976Z,3.70
2023-01-28T01:37:57.087Z,3.30
2023-01-28T01:39:59.232Z,3.00
2023-01-28T01:42:01.846Z,3.60
2023-01-28T01:44:05.735Z,3.30
2023-01-28T01:46:07.932Z,3.80
2023-01-28T01:48:21.075Z,3.17
2023-01-28T01:50:28.401Z,3.60
2023-01-28T01:52:34.092Z,4.07
2023-01-28T01:54:37.468Z,3.70
2023-01-28T01:56:43.527Z,3.30
2023-01-28T01:58:47.876Z,3.07
2023-01-28T02:00:50.120Z,3.60
2023-01-28T02:02:52.601Z,3.60
2023-01-28T02:04:54.759Z,3.70
2023-01-28T02:06:59.049Z,2.73
2023-01-28T02:09:01.296Z,3.30
2023-01-28T02:11:06.093Z,2.73
2023-01-28T02:13:08.189Z,3.10
2023-01-28T02:15:13.711Z,4.07
2023-01-28T02:17:17.061Z,3.63
2023-01-28T02:19:20.129Z,3.20
2023-01-28T02:21:28.253Z,3.47
2023-01-28T02:24:11.846Z,3.07
2023-01-28T02:26:48.182Z,4.07
2023-01-28T02:29:08.572Z,3.30
2023-01-28T02:31:16.875Z,3.30
2023-01-28T02:33:30.723Z,3.70
2023-01-28T02:35:42.261Z,3.37
2023-01-28T02:37:48.796Z,2.93
2023-01-28T02:39:58.699Z,3.70
2023-01-28T02:42:14.811Z,3.57
2023-01-28T02:44:18.691Z,4.40
2023-01-28T02:46:45.713Z,3.43
2023-01-28T02:48:47.923Z,3.67
2023-01-28T02:51:05.828Z,4.03
2023-01-28T02:53:29.043Z,4.40
2023-01-28T02:55:39.283Z,3.80
2023-01-28T02:57:47.296Z,4.07
2023-01-28T03:00:13.049Z,4.20
2023-01-28T03:02:28.709Z,4.40
2023-01-28T03:04:56.971Z,4.20
2023-01-28T03:07:04.354Z,3.57
2023-01-28T03:09:24.808Z,3.53
2023-01-28T03:11:49.085Z,4.50
2023-01-28T03:14:10.148Z,4.50
2023-01-28T03:16:32.112Z,4.93
2023-01-28T03:19:02.883Z,3.60
2023-01-28T03:21:30.456Z,4.40
2023-01-28T03:24:04.739Z,4.70
2023-01-28T03:26:27.983Z,4.00
2023-01-28T03:28:50.867Z,4.20
2023-01-28T03:31:27.621Z,4.33
2023-01-28T03:33:51.714Z,4.47
2023-01-28T03:36:12.180Z,4.40
2023-01-28T03:38:18.303Z,4.20
2023-01-28T03:40:20.998Z,4.70
2023-01-28T03:42:23.495Z,4.17
2023-01-28T03:44:52.988Z,4.50
2023-01-28T03:46:56.064Z,4.60
2023-01-28T03:48:58.195Z,3.57
2023-01-28T03:51:00.472Z,4.03
2023-01-28T03:53:16.428Z,5.17
2023-01-28T03:55:26.300Z,4.40
2023-01-28T03:57:31.521Z,4.00
2023-01-28T03:59:34.576Z,4.20
2023-01-28T04:01:36.965Z,4.13
2023-01-28T04:03:40.006Z,4.70
2023-01-28T04:06:08.988Z,4.50
2023-01-28T04:08:29.735Z,3.67
2023-01-28T04:10:52.114Z,4.00
2023-01-28T04:12:59.639Z,3.73
2023-01-28T04:15:01.821Z,4.33
2023-01-28T04:17:07.508Z,4.27
2023-01-28T04:19:10.309Z,4.13
2023-01-28T04:21:12.768Z,4.13
2023-01-28T04:23:14.898Z,4.87
2023-01-28T04:25:17.544Z,3.80
2023-01-28T04:27:19.897Z,4.27
2023-01-28T04:29:23.743Z,4.20
2023-01-28T04:31:27.549Z,4.73
2023-01-28T04:33:38.208Z,4.20
2023-01-28T04:36:06.600Z,4.27
2023-01-28T04:38:11.800Z,3.70
2023-01-28T04:40:25.673Z,3.83
2023-01-28T04:42:33.633Z,4.40
2023-01-28T04:44:44.238Z,3.73
2023-01-28T04:47:06.515Z,3.80
2023-01-28T04:49:31.450Z,3.43
2023-01-28T04:51:48.042Z,3.40
2023-01-28T04:54:08.980Z,3.80
2023-01-28T04:56:12.311Z,3.93
2023-01-28T04:58:14.958Z,3.83
2023-01-28T05:00:19.545Z,4.00
2023-01-28T05:02:21.755Z,3.47
2023-01-28T05:04:24.620Z,3.60
2023-01-28T05:06:27.583Z,3.70
2023-01-28T05:08:32.159Z,3.63
2023-01-28T05:10:34.288Z,3.87
2023-01-28T05:12:36.431Z,3.50
2023-01-28T05:14:41.810Z,3.70
2023-01-28T05:16:48.137Z,3.80
2023-01-28T05:18:51.507Z,3.20
2023-01-28T05:20:55.131Z,3.70
2023-01-28T05:22:57.285Z,3.50
2023-01-28T05:25:04.649Z,5.03
2023-01-28T05:27:07.569Z,3.60
2023-01-28T05:29:10.326Z,3.80
2023-01-28T05:31:12.691Z,3.90
2023-01-28T05:33:14.845Z,3.63
2023-01-28T05:35:17.533Z,3.20
2023-01-28T05:37:20.026Z,3.60
2023-01-28T05:39:22.295Z,3.50
2023-01-28T05:41:24.479Z,3.47
2023-01-28T05:43:33.923Z,3.50
2023-01-28T05:45:59.013Z,4.37
2023-01-28T05:48:10.873Z,3.90
2023-01-28T05:50:20.181Z,4.50
2023-01-28T05:52:40.781Z,3.03
2023-01-28T05:54:49.723Z,3.53
2023-01-28T05:56:51.817Z,3.60
2023-01-28T05:58:54.001Z,3.10
2023-01-28T06:00:56.593Z,3.63
2023-01-28T06:03:04.600Z,3.83
2023-01-28T06:05:08.041Z,3.80
2023-01-28T06:07:13.309Z,4.03
2023-01-28T06:09:18.183Z,3.70
2023-01-28T06:11:20.659Z,4.07
2023-01-28T06:13:23.638Z,4.13
2023-01-28T06:15:51.980Z,3.43
2023-01-28T06:18:00.443Z,4.43
2023-01-28T06:20:05.367Z,3.93
2023-01-28T06:22:08.426Z,3.63
2023-01-28T06:24:10.755Z,3.13
2023-01-28T06:26:12.999Z,3.43
2023-01-28T06:28:19.123Z,3.60
2023-01-28T06:30:21.381Z,3.90
2023-01-28T06:32:23.527Z,3.67
2023-01-28T06:34:25.858Z,3.40
2023-01-28T06:36:28.007Z,3.90
2023-01-28T06:38:30.352Z,3.80
2023-01-28T06:40:32.739Z,4.37
2023-01-28T06:42:34.896Z,3.70
2023-01-28T06:44:37.263Z,4.43
2023-01-28T06:46:39.409Z,3.93
2023-01-28T06:48:41.597Z,4.63
2023-01-28T06:50:43.686Z,5.57
2023-01-28T06:52:45.853Z,5.03
2023-01-28T06:54:47.975Z,3.60
2023-01-28T06:56:50.103Z,3.90
2023-01-28T06:58:52.242Z,4.67
2023-01-28T07:00:54.433Z,3.93
2023-01-28T07:02:57.308Z,3.30
2023-01-28T07:04:59.454Z,4.53
2023-01-28T07:07:01.504Z,3.43
2023-01-28T07:09:03.844Z,4.43
2023-01-28T07:11:06.058Z,3.60
2023-01-28T07:13:08.176Z,3.43
2023-01-28T07:15:11.168Z,4.00
2023-01-28T07:17:13.358Z,3.70
2023-01-28T07:19:15.491Z,4.30
2023-01-28T07:21:17.846Z,4.50
2023-01-28T07:23:19.981Z,4.40
2023-01-28T07:25:22.050Z,4.17
2023-01-28T07:27:24.119Z,3.80
2023-01-28T07:29:26.049Z,4.70
2023-01-28T07:31:28.198Z,4.97
2023-01-28T07:33:30.310Z,5.00
2023-01-28T07:35:32.503Z,6.13
2023-01-28T07:37:34.412Z,6.33
2023-01-28T07:39:36.402Z,4.70
2023-01-28T07:41:38.571Z,5.17
2023-01-28T07:43:41.915Z,5.10
2023-01-28T07:45:43.963Z,4.40
2023-01-28T07:48:03.427Z,4.87
2023-01-28T07:50:05.878Z,4.43
2023-01-28T07:52:08.798Z,4.63
2023-01-28T07:54:11.054Z,5.30
2023-01-28T07:56:12.990Z,4.67
2023-01-28T07:58:15.042Z,4.77
2023-01-28T08:00:17.779Z,5.30
2023-01-28T08:02:19.816Z,5.00
2023-01-28T08:04:22.132Z,4.33
2023-01-28T08:06:24.220Z,4.20
2023-01-28T08:08:27.383Z,5.10
2023-01-28T08:10:29.305Z,4.70
2023-01-28T08:12:31.331Z,4.83
2023-01-28T08:14:33.277Z,4.97
2023-01-28T08:16:35.259Z,5.27
2023-01-28T08:18:37.276Z,5.40
2023-01-28T08:20:39.997Z,5.30
2023-01-28T08:22:42.065Z,6.10
2023-01-28T08:24:44.008Z,6.10
2023-01-28T08:26:48.696Z,4.83
2023-01-28T08:28:51.613Z,6.00
2023-01-28T08:30:53.821Z,8.10
2023-01-28T08:32:58.186Z,6.40
2023-01-28T08:35:00.136Z,6.10
2023-01-28T08:37:02.206Z,5.30
2023-01-28T08:39:04.266Z,5.80
2023-01-28T08:41:06.247Z,5.07
2023-01-28T08:43:08.335Z,4.73
2023-01-28T08:45:10.617Z,5.60
2023-01-28T08:47:12.687Z,6.50
2023-01-28T08:49:14.818Z,5.87
2023-01-28T08:51:16.964Z,6.20
2023-01-28T08:53:20.172Z,4.70
2023-01-28T08:55:22.155Z,5.33
2023-01-28T08:57:24.191Z,5.20
2023-01-28T08:59:26.173Z,3.97
2023-01-28T09:01:29.457Z,5.27
2023-01-28T09:03:31.567Z,5.40
2023-01-28T09:05:37.465Z,5.97
2023-01-28T09:07:39.473Z,5.57
2023-01-28T09:09:41.455Z,5.17
2023-01-28T09:11:43.485Z,6.50
2023-01-28T09:13:45.589Z,5.90
2023-01-28T09:15:47.856Z,6.13
2023-01-28T09:17:50.035Z,4.93
2023-01-28T09:19:52.141Z,5.10
2023-01-28T09:21:54.200Z,5.10
2023-01-28T09:23:56.872Z,6.13
2023-01-28T09:26:02.351Z,6.47
2023-01-28T09:28:04.974Z,6.07
2023-01-28T09:30:07.991Z,6.00
2023-01-28T09:32:09.990Z,5.53
2023-01-28T09:34:12.055Z,5.53
2023-01-28T09:36:14.108Z,5.93
2023-01-28T09:38:16.164Z,5.37
2023-01-28T09:40:36.327Z,5.30
2023-01-28T09:43:07.148Z,5.70
2023-01-28T09:45:17.985Z,5.77
2023-01-28T09:47:30.967Z,5.53
2023-01-28T09:49:37.784Z,5.70
2023-01-28T09:51:47.340Z,5.50
2023-01-28T09:53:52.505Z,5.07
2023-01-28T09:56:01.996Z,5.60
2023-01-28T09:58:06.500Z,5.80
2023-01-28T10:00:16.178Z,5.97
2023-01-28T10:02:27.462Z,6.30
2023-01-28T10:04:48.013Z,6.17
2023-01-28T10:06:49.885Z,6.03
2023-01-28T10:09:03.606Z,6.83
2023-01-28T10:11:23.454Z,6.80
2023-01-28T10:13:48.984Z,6.10
2023-01-28T10:16:09.017Z,6.13
2023-01-28T10:18:17.496Z,7.27
2023-01-28T10:20:33.870Z,5.77
2023-01-28T10:22:41.492Z,7.00
2023-01-28T10:24:49.438Z,6.83
2023-01-28T10:26:52.051Z,6.27
2023-01-28T10:28:57.333Z,5.83
2023-01-28T10:30:59.424Z,5.87
2023-01-28T10:33:05.428Z,5.60
2023-01-28T10:35:07.774Z,6.30
2023-01-28T10:37:13.717Z,6.00
2023-01-28T10:39:17.467Z,7.60
2023-01-28T10:41:21.869Z,8.33
2023-01-28T10:43:25.714Z,7.57
2023-01-28T10:45:31.151Z,6.60
2023-01-28T10:47:38.879Z,6.73
2023-01-28T10:49:47.801Z,6.27
2023-01-28T10:51:49.807Z,5.90
2023-01-28T10:53:51.770Z,7.37
2023-01-28T10:55:58.844Z,6.10
2023-01-28T10:58:02.835Z,5.73
2023-01-28T11:00:18.540Z,5.37
2023-01-28T11:02:32.488Z,5.50
2023-01-28T11:04:36.269Z,4.57
2023-01-28T11:06:38.242Z,5.80
2023-01-28T11:08:44.578Z,5.63
2023-01-28T11:10:47.394Z,5.07
2023-01-28T11:12:56.507Z,5.77
2023-01-28T11:15:03.625Z,4.90
2023-01-28T11:17:13.226Z,4.40
2023-01-28T11:19:15.935Z,5.90
2023-01-28T11:21:29.657Z,5.30
2023-01-28T11:23:34.204Z,5.50
2023-01-28T11:25:37.578Z,4.77
2023-01-28T11:27:39.818Z,4.10
2023-01-28T11:29:42.354Z,5.30
2023-01-28T11:31:44.820Z,4.67
2023-01-28T11:33:57.205Z,5.00
2023-01-28T11:36:14.482Z,5.50
2023-01-28T11:38:22.386Z,5.07
2023-01-28T11:40:25.348Z,4.40
2023-01-28T11:42:27.531Z,4.53
2023-01-28T11:44:29.951Z,4.43
2023-01-28T11:46:50.394Z,3.70
2023-01-28T11:49:13.535Z,4.07
2023-01-28T11:51:24.605Z,3.90
2023-01-28T11:53:53.963Z,4.40
2023-01-28T11:56:46.874Z,3.77
2023-01-28T11:58:59.734Z,4.53
2023-01-28T12:01:10.535Z,2.70
2023-01-28T12:03:12.521Z,6.40
2023-01-28T12:05:14.534Z,4.13
2023-01-28T12:07:37.198Z,3.37
2023-01-28T12:09:59.126Z,4.17
2023-01-28T12:12:13.537Z,3.40
2023-01-28T12:14:33.923Z,3.80
2023-01-28T12:17:05.114Z,3.63
2023-01-28T12:19:19.320Z,3.80
2023-01-28T12:21:55.064Z,3.50
2023-01-28T12:24:14.870Z,4.07
2023-01-28T12:26:31.409Z,3.90
2023-01-28T12:28:39.998Z,3.40
2023-01-28T12:31:19.451Z,2.80
2023-01-28T12:33:31.452Z,2.97
2023-01-28T12:35:51.185Z,3.30
2023-01-28T12:38:00.996Z,3.47
2023-01-28T12:40:27.204Z,3.17
2023-01-28T12:42:42.595Z,3.20
2023-01-28T12:44:50.544Z,3.13
2023-01-28T12:47:16.306Z,2.50
2023-01-28T12:49:23.261Z,2.60
2023-01-28T12:51:42.699Z,2.67
2023-01-28T12:54:14.892Z,3.00
2023-01-28T12:56:19.153Z,3.70
2023-01-28T12:58:25.228Z,3.40
2023-01-28T13:00:30.775Z,3.40
2023-01-28T13:02:47.444Z,3.00
2023-01-28T13:05:01.196Z,3.43
2023-01-28T13:07:11.833Z,2.70
2023-01-28T13:09:20.680Z,2.73
2023-01-28T13:11:24.155Z,3.43
2023-01-28T13:13:29.002Z,3.60
2023-01-28T13:15:31.901Z,3.83
2023-01-28T13:17:33.950Z,2.20
2023-01-28T13:19:39.374Z,2.83
2023-01-28T13:21:49.176Z,5.47
2023-01-28T13:24:05.910Z,2.90
2023-01-28T13:26:20.880Z,4.07
2023-01-28T13:28:30.241Z,4.20
2023-01-28T13:30:34.691Z,4.37
2023-01-28T13:32:36.870Z,3.90
2023-01-28T13:34:44.094Z,4.00
2023-01-28T13:36:47.370Z,3.23
2023-01-28T13:38:49.622Z,3.63
2023-01-28T13:40:56.992Z,2.90
2023-01-28T13:43:25.099Z,4.47
2023-01-28T13:45:27.136Z,4.77
2023-01-28T13:47:34.412Z,3.60
2023-01-28T13:49:36.375Z,2.73
2023-01-28T13:51:40.430Z,2.80
2023-01-28T13:53:49.224Z,2.47
2023-01-28T13:55:54.139Z,3.00
2023-01-28T13:58:05.159Z,2.77
2023-01-28T14:00:21.609Z,3.30
2023-01-28T14:02:58.066Z,3.20
2023-01-28T14:05:39.219Z,3.07
2023-01-28T14:08:07.360Z,3.17
2023-01-28T14:10:23.567Z,4.13
2023-01-28T14:12:40.622Z,3.30
2023-01-28T14:15:07.684Z,3.50
2023-01-28T14:17:42.536Z,3.90
2023-01-28T14:19:45.801Z,2.77
2023-01-28T14:21:47.954Z,2.60
2023-01-28T14:23:53.215Z,2.93
2023-01-28T14:25:58.188Z,3.23
2023-01-28T14:28:01.216Z,2.90
2023-01-28T14:30:21.227Z,3.60
2023-01-28T14:32:29.638Z,3.40
2023-01-28T14:34:34.999Z,2.80
2023-01-28T14:36:41.666Z,2.73
2023-01-28T14:38:44.643Z,3.10
2023-01-28T14:40:50.302Z,2.70
2023-01-28T14:42:55.146Z,3.40
2023-01-28T14:45:20.423Z,5.93
2023-01-28T14:47:34.340Z,6.43
2023-01-28T14:49:43.303Z,3.00
2023-01-28T14:52:14.535Z,2.83
2023-01-28T14:54:52.458Z,2.97
2023-01-28T14:57:33.168Z,4.70
2023-01-28T14:59:46.501Z,4.40
2023-01-28T15:01:49.390Z,3.20
2023-01-28T15:03:52.155Z,2.80
2023-01-28T15:06:13.232Z,3.20
2023-01-28T15:08:22.647Z,3.80
2023-01-28T15:10:29.394Z,3.10
2023-01-28T15:12:35.137Z,3.07
2023-01-28T15:14:37.279Z,3.07
2023-01-28T15:16:39.406Z,3.27
2023-01-28T15:18:43.541Z,8.00
2023-01-28T15:20:47.154Z,3.70
2023-01-28T15:22:50.388Z,2.83
2023-01-28T15:24:52.955Z,2.80
2023-01-28T15:26:55.109Z,5.57
2023-01-28T15:28:57.510Z,7.80
2023-01-28T15:30:59.836Z,7.40
2023-01-28T15:33:10.013Z,3.53
2023-01-28T15:35:14.316Z,3.50
2023-01-28T15:37:18.224Z,3.10
2023-01-28T15:39:22.490Z,3.17
2023-01-28T15:41:35.408Z,3.40
2023-01-28T15:43:38.544Z,3.10
2023-01-28T15:45:47.970Z,3.13
2023-01-28T15:47:50.709Z,4.10
2023-01-28T15:49:57.379Z,4.57
2023-01-28T15:51:59.799Z,3.30
2023-01-28T15:54:07.462Z,3.00
2023-01-28T15:56:11.744Z,3.10
2023-01-28T15:58:25.454Z,4.17
2023-01-28T16:00:28.187Z,7.43
2023-01-28T16:02:31.911Z,6.43
2023-01-28T16:04:33.999Z,5.70
2023-01-28T16:06:37.727Z,4.60
2023-01-28T16:08:47.771Z,4.17
2023-01-28T16:10:54.542Z,3.60
2023-01-28T16:13:18.553Z,3.50
2023-01-28T16:15:21.989Z,3.20
2023-01-28T16:17:27.715Z,3.43
2023-01-28T16:19:38.548Z,4.13
2023-01-28T16:21:45.644Z,4.07
2023-01-28T16:23:54.452Z,4.03
2023-01-28T16:26:05.847Z,4.90
2023-01-28T16:28:19.613Z,4.83
2023-01-28T16:30:21.747Z,5.43
2023-01-28T16:32:35.447Z,4.63
2023-01-28T16:34:37.610Z,4.60
2023-01-28T16:36:39.770Z,5.03
2023-01-28T16:38:42.054Z,4.33
2023-01-28T16:40:45.471Z,3.80
2023-01-28T16:42:50.816Z,4.40
2023-01-28T16:44:52.915Z,5.40
2023-01-28T16:46:55.372Z,4.73
2023-01-28T16:48:57.512Z,6.13
2023-01-28T16:50:59.644Z,7.20
2023-01-28T16:53:01.806Z,7.47
2023-01-28T16:55:04.244Z,7.73
2023-01-28T16:57:06.371Z,16.10
2023-01-28T16:59:11.123Z,6.33
2023-01-28T17:01:13.439Z,5.23
2023-01-28T17:03:15.628Z,5.17
2023-01-28T17:05:18.581Z,4.73
2023-01-28T17:07:20.923Z,4.90
2023-01-28T17:09:24.106Z,4.50
2023-01-28T17:11:29.367Z,4.07
2023-01-28T17:13:31.780Z,4.10
2023-01-28T17:15:35.680Z,3.70
2023-01-28T17:17:37.871Z,4.80
2023-01-28T17:19:40.079Z,4.00
2023-01-28T17:21:42.230Z,4.03
2023-01-28T17:23:44.376Z,4.30
2023-01-28T17:25:46.461Z,5.40
2023-01-28T17:27:50.055Z,4.70
2023-01-28T17:29:53.332Z,4.07
2023-01-28T17:31:55.569Z,4.97
2023-01-28T17:33:58.913Z,5.33
2023-01-28T17:36:02.093Z,4.60
2023-01-28T17:38:05.370Z,4.60
2023-01-28T17:40:08.497Z,5.17
2023-01-28T17:42:10.661Z,7.37
2023-01-28T17:44:15.032Z,7.37
2023-01-28T17:46:19.006Z,6.10
2023-01-28T17:48:21.202Z,7.10
2023-01-28T17:50:23.430Z,4.87
2023-01-28T17:52:25.639Z,7.00
2023-01-28T17:54:27.859Z,4.73
2023-01-28T17:56:31.186Z,5.03
2023-01-28T17:58:33.340Z,5.60
2023-01-28T18:00:35.514Z,5.47
2023-01-28T18:02:37.639Z,5.10
2023-01-28T18:04:41.158Z,5.33
2023-01-28T18:06:43.488Z,4.17
2023-01-28T18:08:45.842Z,3.90
2023-01-28T18:10:47.983Z,3.90
2023-01-28T18:12:50.335Z,4.13
2023-01-28T18:14:52.448Z,4.50
2023-01-28T18:16:54.565Z,4.70
2023-01-28T18:18:56.751Z,5.63
2023-01-28T18:21:03.999Z,4.23
2023-01-28T18:23:06.217Z,4.57
2023-01-28T18:25:10.252Z,7.27
2023-01-28T18:27:12.422Z,6.43
2023-01-28T18:29:17.105Z,5.47
2023-01-28T18:31:20.131Z,5.93
2023-01-28T18:33:23.391Z,6.03
2023-01-28T18:35:25.546Z,5.10
2023-01-28T18:37:28.212Z,5.20
2023-01-28T18:39:31.231Z,5.20
2023-01-28T18:41:33.481Z,8.73
2023-01-28T18:43:35.604Z,10.83
2023-01-28T18:45:39.756Z,8.93
2023-01-28T18:47:41.912Z,7.30
2023-01-28T18:49:44.255Z,6.20
2023-01-28T18:51:46.402Z,6.80
2023-01-28T18:53:48.601Z,6.60
2023-01-28T18:55:50.704Z,4.70
2023-01-28T18:57:52.998Z,5.80
2023-01-28T18:59:55.126Z,5.57
2023-01-28T19:01:57.280Z,4.97
2023-01-28T19:03:59.687Z,6.60
2023-01-28T19:06:07.390Z,5.60
2023-01-28T19:08:09.871Z,5.90
2023-01-28T19:10:12.070Z,6.07
2023-01-28T19:12:14.225Z,5.10
2023-01-28T19:14:16.874Z,4.83
2023-01-28T19:16:20.107Z,4.50
2023-01-28T19:18:22.444Z,4.80
2023-01-28T19:20:24.629Z,4.87
2023-01-28T19:22:26.828Z,4.80
2023-01-28T19:24:29.133Z,7.00
2023-01-28T19:26:31.519Z,7.23
2023-01-28T19:28:34.716Z,7.20
2023-01-28T19:30:37.465Z,6.57
2023-01-28T19:32:39.660Z,7.47
2023-01-28T19:34:41.746Z,6.53
2023-01-28T19:36:43.961Z,5.90
2023-01-28T19:38:46.163Z,6.90
2023-01-28T19:40:48.424Z,6.47
2023-01-28T19:42:53.181Z,6.27
2023-01-28T19:44:55.322Z,6.40
2023-01-28T19:46:57.480Z,6.40
2023-01-28T19:48:59.639Z,5.50
2023-01-28T19:51:09.128Z,5.47
2023-01-28T19:53:11.407Z,5.20
2023-01-28T19:55:13.771Z,4.63
2023-01-28T19:57:16.169Z,5.10
2023-01-28T19:59:19.793Z,6.10
2023-01-28T20:01:25.489Z,6.50
2023-01-28T20:03:28.767Z,5.90
2023-01-28T20:05:30.990Z,5.70
2023-01-28T20:07:33.158Z,6.57
2023-01-28T20:09:35.353Z,6.90
2023-01-28T20:11:37.501Z,6.23
2023-01-28T20:13:41.523Z,6.30
2023-01-28T20:15:43.703Z,6.40
2023-01-28T20:17:46.016Z,7.67
2023-01-28T20:19:49.065Z,8.73
2023-01-28T20:21:52.159Z,6.90
2023-01-28T20:23:54.901Z,8.10
2023-01-28T20:26:03.400Z,7.97
2023-01-28T20:28:05.523Z,7.20
2023-01-28T20:30:08.618Z,6.60
2023-01-28T20:32:18.365Z,6.57
2023-01-28T20:34:21.586Z,7.27
2023-01-28T20:36:23.714Z,5.50
2023-01-28T20:38:25.878Z,7.77
2023-01-28T20:40:27.965Z,7.30
2023-01-28T20:42:30.129Z,7.77
2023-01-28T20:44:32.306Z,9.50
2023-01-28T20:46:36.613Z,9.43
2023-01-28T20:48:38.920Z,7.70
2023-01-28T20:50:41.195Z,8.90
2023-01-28T20:52:43.459Z,7.10
2023-01-28T20:54:45.610Z,8.03
2023-01-28T20:56:51.355Z,6.80
2023-01-28T20:59:01.137Z,6.73
2023-01-28T21:01:03.567Z,8.17
2023-01-28T21:03:05.667Z,7.50
2023-01-28T21:05:08.051Z,7.13
2023-01-28T21:07:12.692Z,7.30
2023-01-28T21:09:15.116Z,6.37
2023-01-28T21:11:17.507Z,6.93
2023-01-28T21:13:19.656Z,8.53
2023-01-28T21:15:21.814Z,7.33
2023-01-28T21:17:25.074Z,7.10
2023-01-28T21:19:27.282Z,8.00
2023-01-28T21:21:29.801Z,8.33
2023-01-28T21:23:32.016Z,8.67
2023-01-28T21:25:34.214Z,9.27
2023-01-28T21:27:36.360Z,8.70
2023-01-28T21:29:38.569Z,8.30
2023-01-28T21:31:40.794Z,8.63
2023-01-28T21:33:43.434Z,8.40
2023-01-28T21:35:45.706Z,8.43
2023-01-28T21:37:47.772Z,8.67
2023-01-28T21:39:50.295Z,8.10
2023-01-28T21:41:52.530Z,8.03
2023-01-28T21:43:55.746Z,7.97
2023-01-28T21:45:58.750Z,8.30
2023-01-28T21:48:01.014Z,8.70
2023-01-28T21:50:03.646Z,9.60
2023-01-28T21:52:07.280Z,8.37
2023-01-28T21:54:15.167Z,8.70
2023-01-28T21:56:17.478Z,8.67
2023-01-28T21:58:38.415Z,8.20
2023-01-28T22:00:40.611Z,9.10
2023-01-28T22:02:42.754Z,8.47
2023-01-28T22:04:50.418Z,8.13
2023-01-28T22:06:54.199Z,8.40
2023-01-28T22:08:56.426Z,8.33
2023-01-28T22:11:02.365Z,8.80
2023-01-28T22:13:04.465Z,8.90
2023-01-28T22:15:07.238Z,8.90
2023-01-28T22:17:11.668Z,9.93
2023-01-28T22:19:14.347Z,9.63
2023-01-28T22:21:16.853Z,9.40
2023-01-28T22:23:18.965Z,10.13
2023-01-28T22:25:21.148Z,10.43
2023-01-28T22:27:23.331Z,10.30
2023-01-28T22:29:25.667Z,9.20
2023-01-28T22:31:28.091Z,10.77
2023-01-28T22:33:30.382Z,9.20
2023-01-28T22:35:32.537Z,9.27
2023-01-28T22:37:34.657Z,9.97
2023-01-28T22:39:36.777Z,10.60
2023-01-28T22:41:39.055Z,8.67
2023-01-28T22:43:41.888Z,9.07
2023-01-28T22:45:44.692Z,9.00
2023-01-28T22:47:46.840Z,9.37
2023-01-28T22:49:48.951Z,10.03
2023-01-28T22:51:51.299Z,10.27
2023-01-28T22:53:53.846Z,9.20
2023-01-28T22:55:56.320Z,9.67
2023-01-28T22:57:58.440Z,10.20
2023-01-28T23:00:01.010Z,9.73
2023-01-28T23:02:03.425Z,10.90
2023-01-28T23:04:05.681Z,10.60
2023-01-28T23:06:07.880Z,11.70
2023-01-28T23:08:13.027Z,10.50
2023-01-28T23:10:15.642Z,8.80
2023-01-28T23:12:18.109Z,9.83
2023-01-28T23:14:38.779Z,9.37
2023-01-28T23:16:59.823Z,9.30
2023-01-28T23:19:20.621Z,10.70
2023-01-28T23:21:44.094Z,10.30
2023-01-28T23:24:04.817Z,9.60
2023-01-28T23:26:07.233Z,9.10
2023-01-28T23:28:09.390Z,8.60
2023-01-28T23:30:12.944Z,9.37
2023-01-28T23:32:15.101Z,11.33
2023-01-28T23:34:17.411Z,9.87
2023-01-28T23:36:19.606Z,9.07
2023-01-28T23:38:21.769Z,9.90
2023-01-28T23:40:24.743Z,8.77
2023-01-28T23:42:26.932Z,9.80
2023-01-28T23:44:29.013Z,8.50
2023-01-28T23:46:39.525Z,9.87
2023-01-28T23:48:42.441Z,9.63
2023-01-28T23:50:44.736Z,8.83
2023-01-28T23:52:46.827Z,9.67
2023-01-28T23:54:49.017Z,9.30
2023-01-28T23:56:51.127Z,9.47
2023-01-28T23:58:53.262Z,9.00
